createdAt,value
2018-04-16T00:01:54.484Z,100350.75
2018-04-16T00:04:26.992Z,100354.30
2018-04-16T00:06:59.520Z,100355.13
2018-04-16T00:09:32.031Z,100353.73
2018-04-16T00:12:04.569Z,100345.84
2018-04-16T00:14:37.132Z,100346.47
2018-04-16T00:17:09.670Z,100353.38
2018-04-16T00:19:42.178Z,100352.57
2018-04-16T00:22:14.701Z,100351.17
2018-04-16T00:24:47.229Z,100357.06
2018-04-16T00:27:19.762Z,100365.48
2018-04-16T00:29:52.280Z,100361.20
2018-04-16T00:32:30.567Z,100362.55
2018-04-16T00:35:08.628Z,100352.42
2018-04-16T00:37:46.771Z,100346.97
2018-04-16T00:40:24.784Z,100347.22
2018-04-16T00:43:02.949Z,100351.70
2018-04-16T00:45:41.072Z,100346.88
2018-04-16T00:48:19.131Z,100343.81
2018-04-16T00:50:57.267Z,100339.68
2018-04-16T00:53:47.343Z,100345.66
2018-04-16T00:56:25.612Z,100355.87
2018-04-16T00:59:03.663Z,100346.59
2018-04-16T01:01:41.830Z,100342.51
2018-04-16T01:04:19.979Z,100338.34
2018-04-16T01:06:58.067Z,100337.00
2018-04-16T01:09:36.093Z,100334.02
2018-04-16T01:12:14.185Z,100337.09
2018-04-16T01:14:52.336Z,100330.34
2018-04-16T01:17:30.578Z,100325.90
2018-04-16T01:20:08.672Z,100319.31
2018-04-16T01:22:46.752Z,100326.42
2018-04-16T01:25:24.824Z,100321.28
2018-04-16T01:28:03.076Z,100328.45
2018-04-16T01:30:41.159Z,100329.44
2018-04-16T01:33:19.450Z,100340.93
2018-04-16T01:35:57.631Z,100345.60
2018-04-16T01:38:35.695Z,100344.35
2018-04-16T01:41:13.912Z,100343.08
2018-04-16T01:43:51.972Z,100343.97
2018-04-16T01:46:30.097Z,100347.77
2018-04-16T01:49:08.198Z,100334.08
2018-04-16T01:51:46.385Z,100336.58
2018-04-16T01:57:28.563Z,100338.25
2018-04-16T02:00:06.595Z,100340.33
2018-04-16T02:02:44.842Z,100339.85
2018-04-16T02:05:23.091Z,100337.80
2018-04-16T02:08:01.195Z,100338.07
2018-04-16T02:10:39.386Z,100334.53
2018-04-16T02:13:17.512Z,100329.20
2018-04-16T02:15:55.621Z,100322.30
2018-04-16T02:18:33.845Z,100312.20
2018-04-16T02:21:12.108Z,100315.30
2018-04-16T02:23:50.268Z,100311.66
2018-04-16T02:26:28.412Z,100323.22
2018-04-16T02:29:06.535Z,100313.19
2018-04-16T02:31:44.778Z,100316.61
2018-04-16T02:34:22.873Z,100311.99
2018-04-16T02:37:00.990Z,100310.41
2018-04-16T02:39:39.053Z,100317.99
2018-04-16T02:42:17.212Z,100317.13
2018-04-16T02:44:55.444Z,100317.04
2018-04-16T02:47:33.674Z,100316.56
2018-04-16T02:50:11.995Z,100314.80
2018-04-16T02:52:50.204Z,100317.04
2018-04-16T02:55:28.395Z,100320.46
2018-04-16T02:58:06.484Z,100326.03
2018-04-16T03:00:44.630Z,100332.18
2018-04-16T03:03:22.724Z,100332.83
2018-04-16T03:06:00.760Z,100331.79
2018-04-16T03:08:39.071Z,100332.98
2018-04-16T03:11:17.245Z,100328.13
2018-04-16T03:13:55.341Z,100321.63
2018-04-16T03:16:33.406Z,100319.48
2018-04-16T03:19:11.581Z,100315.11
2018-04-16T03:24:53.897Z,100309.59
2018-04-16T03:27:32.053Z,100309.56
2018-04-16T03:30:10.195Z,100309.20
2018-04-16T03:32:48.284Z,100307.41
2018-04-16T03:35:26.375Z,100311.99
2018-04-16T03:38:04.569Z,100314.81
2018-04-16T03:40:42.672Z,100328.75
2018-04-16T03:43:20.755Z,100325.35
2018-04-16T03:45:59.019Z,100326.08
2018-04-16T03:48:37.289Z,100320.83
2018-04-16T03:51:09.829Z,100324.23
2018-04-16T03:53:48.064Z,100327.62
2018-04-16T03:56:20.595Z,100325.47
2018-04-16T03:58:53.115Z,100323.39
2018-04-16T04:01:25.738Z,100326.43
2018-04-16T04:03:58.232Z,100335.72
2018-04-16T04:06:30.753Z,100335.72
2018-04-16T04:09:03.305Z,100345.60
2018-04-16T04:11:35.864Z,100346.44
2018-04-16T04:14:08.455Z,100345.98
2018-04-16T04:16:40.993Z,100355.78
2018-04-16T04:19:13.509Z,100351.50
2018-04-16T04:21:46.119Z,100358.14
2018-04-16T04:24:30.459Z,100362.90
2018-04-16T04:27:14.909Z,100356.80
2018-04-16T04:29:59.436Z,100363.88
2018-04-16T04:32:31.964Z,100368.47
2018-04-16T04:35:04.589Z,100370.16
2018-04-16T04:37:37.123Z,100366.76
2018-04-16T04:40:09.623Z,100367.95
2018-04-16T04:42:42.159Z,100375.47
2018-04-16T04:45:14.730Z,100366.82
2018-04-16T04:47:47.315Z,100376.47
2018-04-16T04:50:19.816Z,100378.64
2018-04-16T04:52:52.338Z,100378.49
2018-04-16T04:55:24.856Z,100379.27
2018-04-16T04:57:57.381Z,100384.58
2018-04-16T05:00:29.886Z,100390.41
2018-04-16T05:03:02.407Z,100392.28
2018-04-16T05:05:34.924Z,100404.70
2018-04-16T05:08:07.448Z,100408.23
2018-04-16T05:10:40.061Z,100403.41
2018-04-16T05:13:12.592Z,100401.52
2018-04-16T05:15:45.142Z,100400.35
2018-04-16T05:18:17.727Z,100399.61
2018-04-16T05:20:50.263Z,100403.31
2018-04-16T05:23:22.792Z,100404.52
2018-04-16T05:25:55.377Z,100400.56
2018-04-16T05:28:27.915Z,100397.89
2018-04-16T05:31:00.423Z,100413.49
2018-04-16T05:33:33.035Z,100409.23
2018-04-16T05:36:05.546Z,100410.57
2018-04-16T05:38:38.068Z,100420.34
2018-04-16T05:41:10.566Z,100418.77
2018-04-16T05:43:43.101Z,100421.20
2018-04-16T05:46:15.604Z,100425.79
2018-04-16T05:48:48.123Z,100429.55
2018-04-16T05:51:20.741Z,100433.00
2018-04-16T05:53:53.267Z,100427.94
2018-04-16T05:56:25.817Z,100426.05
2018-04-16T05:58:58.387Z,100433.20
2018-04-16T06:01:30.889Z,100436.59
2018-04-16T06:04:03.463Z,100430.03
2018-04-16T06:06:35.965Z,100434.77
2018-04-16T06:09:08.532Z,100443.21
2018-04-16T06:11:41.033Z,100441.30
2018-04-16T06:14:13.601Z,100444.16
2018-04-16T06:16:46.111Z,100454.47
2018-04-16T06:19:18.644Z,100447.16
2018-04-16T06:21:51.153Z,100455.02
2018-04-16T06:24:23.747Z,100459.03
2018-04-16T06:26:56.404Z,100461.80
2018-04-16T06:29:29.019Z,100463.88
2018-04-16T06:32:01.526Z,100475.99
2018-04-16T06:34:34.055Z,100462.25
2018-04-16T06:37:06.560Z,100473.05
2018-04-16T06:39:39.083Z,100470.97
2018-04-16T06:42:11.654Z,100476.87
2018-04-16T06:44:44.229Z,100478.36
2018-04-16T06:47:16.808Z,100473.88
2018-04-16T06:49:49.358Z,100467.17
2018-04-16T06:52:22.090Z,100475.98
2018-04-16T06:54:54.811Z,100482.64
2018-04-16T06:57:27.326Z,100475.84
2018-04-16T06:59:59.956Z,100483.31
2018-04-16T07:02:32.477Z,100497.72
2018-04-16T07:05:05.128Z,100495.77
2018-04-16T07:07:37.711Z,100491.14
2018-04-16T07:10:10.307Z,100495.89
2018-04-16T07:12:42.871Z,100494.04
2018-04-16T07:15:15.393Z,100495.25
2018-04-16T07:17:47.910Z,100496.09
2018-04-16T07:20:20.440Z,100497.72
2018-04-16T07:22:52.960Z,100505.66
2018-04-16T07:25:25.595Z,100499.14
2018-04-16T07:27:58.097Z,100498.24
2018-04-16T07:30:30.615Z,100502.89
2018-04-16T07:33:03.127Z,100496.38
2018-04-16T07:35:35.657Z,100498.09
2018-04-16T07:38:08.235Z,100503.36
2018-04-16T07:40:40.758Z,100512.81
2018-04-16T07:43:13.261Z,100516.18
2018-04-16T07:45:45.785Z,100519.43
2018-04-16T07:48:18.375Z,100520.48
2018-04-16T07:50:50.902Z,100528.01
2018-04-16T07:53:23.436Z,100533.42
2018-04-16T07:55:55.963Z,100541.81
2018-04-16T07:58:28.503Z,100535.97
2018-04-16T08:01:01.096Z,100546.48
2018-04-16T08:03:33.594Z,100544.91
2018-04-16T08:06:06.126Z,100547.08
2018-04-16T08:08:38.632Z,100550.64
2018-04-16T08:11:11.170Z,100550.28
2018-04-16T08:13:43.695Z,100548.29
2018-04-16T08:16:16.212Z,100551.11
2018-04-16T08:18:48.733Z,100549.36
2018-04-16T08:21:21.239Z,100549.61
2018-04-16T08:23:53.765Z,100548.91
2018-04-16T08:26:26.279Z,100546.28
2018-04-16T08:28:58.819Z,100544.72
2018-04-16T08:31:31.322Z,100549.81
2018-04-16T08:34:03.839Z,100546.39
2018-04-16T08:36:36.345Z,100553.38
2018-04-16T08:39:08.864Z,100558.76
2018-04-16T08:41:41.368Z,100557.14
2018-04-16T08:44:13.887Z,100561.50
2018-04-16T08:46:46.467Z,100563.28
2018-04-16T08:49:19.019Z,100568.72
2018-04-16T08:51:51.526Z,100569.21
2018-04-16T08:54:24.048Z,100567.27
2018-04-16T08:56:56.552Z,100560.73
2018-04-16T08:59:29.148Z,100565.07
2018-04-16T09:02:01.655Z,100561.50
2018-04-16T09:04:34.176Z,100567.52
2018-04-16T09:07:06.685Z,100562.09
2018-04-16T09:09:39.203Z,100560.38
2018-04-16T09:12:11.712Z,100559.92
2018-04-16T09:14:44.262Z,100565.64
2018-04-16T09:17:16.774Z,100564.78
2018-04-16T09:19:49.300Z,100563.80
2018-04-16T09:22:21.805Z,100555.14
2018-04-16T09:24:54.398Z,100560.63
2018-04-16T09:27:26.909Z,100559.25
2018-04-16T09:29:59.468Z,100561.27
2018-04-16T09:32:32.468Z,100559.37
2018-04-16T09:35:05.053Z,100566.61
2018-04-16T09:37:37.637Z,100558.19
2018-04-16T09:40:10.164Z,100557.23
2018-04-16T09:42:42.684Z,100558.79
2018-04-16T09:45:15.305Z,100554.46
2018-04-16T09:47:47.806Z,100546.66
2018-04-16T09:50:20.361Z,100541.16
2018-04-16T09:52:52.851Z,100546.70
2018-04-16T09:55:25.377Z,100545.73
2018-04-16T09:57:57.887Z,100547.59
2018-04-16T10:00:30.526Z,100546.41
2018-04-16T10:03:03.023Z,100550.56
2018-04-16T10:05:35.555Z,100553.48
2018-04-16T10:08:08.059Z,100543.38
2018-04-16T10:10:40.584Z,100544.95
2018-04-16T10:13:13.095Z,100548.83
2018-04-16T10:15:45.732Z,100548.84
2018-04-16T10:18:18.317Z,100549.37
2018-04-16T10:20:50.852Z,100544.91
2018-04-16T10:23:23.354Z,100548.51
2018-04-16T10:25:55.879Z,100542.11
2018-04-16T10:28:28.380Z,100543.83
2018-04-16T10:31:00.912Z,100540.15
2018-04-16T10:33:33.416Z,100541.22
2018-04-16T10:36:06.011Z,100538.93
2018-04-16T10:38:38.518Z,100538.48
2018-04-16T10:41:11.040Z,100533.28
2018-04-16T10:43:43.562Z,100529.27
2018-04-16T10:46:16.091Z,100522.71
2018-04-16T10:48:48.596Z,100520.60
2018-04-16T10:51:21.232Z,100530.30
2018-04-16T10:53:53.727Z,100529.66
2018-04-16T10:56:26.331Z,100528.56
2018-04-16T10:58:58.872Z,100533.15
2018-04-16T11:01:31.407Z,100536.27
2018-04-16T11:04:03.952Z,100535.73
2018-04-16T11:06:36.480Z,100544.89
2018-04-16T11:09:08.979Z,100553.71
2018-04-16T11:11:41.549Z,100559.02
2018-04-16T11:14:14.056Z,100554.03
2018-04-16T11:16:46.689Z,100556.91
2018-04-16T11:19:19.270Z,100561.57
2018-04-16T11:21:51.799Z,100558.13
2018-04-16T11:24:24.335Z,100560.92
2018-04-16T11:26:56.867Z,100553.42
2018-04-16T11:29:29.379Z,100546.65
2018-04-16T11:32:01.899Z,100554.61
2018-04-16T11:34:34.407Z,100553.89
2018-04-16T11:37:06.941Z,100559.14
2018-04-16T11:39:39.539Z,100567.81
2018-04-16T11:42:12.060Z,100564.82
2018-04-16T11:44:44.571Z,100559.63
2018-04-16T11:47:17.155Z,100568.09
2018-04-16T11:49:49.657Z,100562.64
2018-04-16T11:52:22.180Z,100567.09
2018-04-16T11:54:54.675Z,100557.89
2018-04-16T11:57:27.211Z,100567.55
2018-04-16T11:59:59.745Z,100559.13
2018-04-16T12:02:32.271Z,100565.30
2018-04-16T12:05:04.777Z,100565.34
2018-04-16T12:07:37.360Z,100570.59
2018-04-16T12:10:09.860Z,100572.06
2018-04-16T12:12:42.384Z,100568.95
2018-04-16T12:15:14.891Z,100563.52
2018-04-16T12:17:47.667Z,100562.58
2018-04-16T12:20:20.291Z,100557.86
2018-04-16T12:22:52.817Z,100562.33
2018-04-16T12:25:25.321Z,100565.85
2018-04-16T12:27:57.934Z,100560.58
2018-04-16T12:30:30.436Z,100564.09
2018-04-16T12:33:03.020Z,100571.46
2018-04-16T12:35:35.491Z,100572.80
2018-04-16T12:38:08.025Z,100571.36
2018-04-16T12:40:40.568Z,100574.19
2018-04-16T12:43:13.142Z,100569.03
2018-04-16T12:45:45.727Z,100560.98
2018-04-16T12:48:18.315Z,100561.12
2018-04-16T12:50:50.851Z,100556.83
2018-04-16T12:53:23.363Z,100558.68
2018-04-16T12:55:55.884Z,100557.08
2018-04-16T12:58:28.376Z,100565.01
2018-04-16T13:01:00.944Z,100562.53
2018-04-16T13:03:33.519Z,100559.00
2018-04-16T13:06:06.049Z,100558.54
2018-04-16T13:08:38.557Z,100565.45
2018-04-16T13:11:11.089Z,100566.03
2018-04-16T13:13:43.665Z,100573.51
2018-04-16T13:16:16.188Z,100567.44
2018-04-16T13:18:48.689Z,100566.89
2018-04-16T13:21:21.203Z,100568.89
2018-04-16T13:23:53.808Z,100567.09
2018-04-16T13:26:26.396Z,100560.31
2018-04-16T13:28:58.981Z,100562.14
2018-04-16T13:31:31.583Z,100573.52
2018-04-16T13:34:04.151Z,100579.77
2018-04-16T13:36:36.737Z,100570.70
2018-04-16T13:39:09.232Z,100562.14
2018-04-16T13:41:41.736Z,100572.53
2018-04-16T13:44:14.227Z,100582.61
2018-04-16T13:46:46.739Z,100582.66
2018-04-16T13:49:19.270Z,100583.01
2018-04-16T13:51:51.793Z,100583.75
2018-04-16T13:54:24.287Z,100573.26
2018-04-16T13:56:56.805Z,100584.84
2018-04-16T13:59:29.312Z,100585.19
2018-04-16T14:02:01.837Z,100588.34
2018-04-16T14:04:34.341Z,100584.45
2018-04-16T14:07:06.869Z,100590.01
2018-04-16T14:09:39.364Z,100587.98
2018-04-16T14:12:11.886Z,100592.63
2018-04-16T14:14:44.392Z,100600.05
2018-04-16T14:17:17.000Z,100594.23
2018-04-16T14:19:49.515Z,100590.62
2018-04-16T14:22:22.028Z,100596.21
2018-04-16T14:24:54.528Z,100596.67
2018-04-16T14:27:27.045Z,100604.48
2018-04-16T14:29:59.535Z,100616.95
2018-04-16T14:32:32.106Z,100623.83
2018-04-16T14:35:04.601Z,100622.68
2018-04-16T14:37:37.172Z,100625.64
2018-04-16T14:40:09.659Z,100628.51
2018-04-16T14:42:42.179Z,100637.12
2018-04-16T14:45:14.730Z,100639.22
2018-04-16T14:47:47.380Z,100645.28
2018-04-16T14:50:19.877Z,100637.98
2018-04-16T14:52:52.404Z,100631.41
2018-04-16T14:55:24.915Z,100633.59
2018-04-16T14:57:57.457Z,100637.09
2018-04-16T15:00:29.977Z,100646.66
2018-04-16T15:03:02.499Z,100655.47
2018-04-16T15:05:35.020Z,100668.67
2018-04-16T15:08:07.566Z,100668.61
2018-04-16T15:10:40.094Z,100625.55
2018-04-16T15:13:12.622Z,100636.73
2018-04-16T15:15:45.123Z,100656.61
2018-04-16T15:18:17.642Z,100686.41
2018-04-16T15:20:50.212Z,100713.45
2018-04-16T15:23:22.751Z,100729.69
2018-04-16T15:25:55.277Z,100727.72
2018-04-16T15:28:27.964Z,100717.86
2018-04-16T15:31:00.487Z,100710.11
2018-04-16T15:33:33.055Z,100706.16
2018-04-16T15:36:05.564Z,100707.45
2018-04-16T15:38:38.120Z,100708.13
2018-04-16T15:41:10.635Z,100716.45
2018-04-16T15:43:43.168Z,100711.91
2018-04-16T15:46:15.669Z,100719.62
2018-04-16T15:48:48.192Z,100722.17
2018-04-16T15:51:20.693Z,100722.81
2018-04-16T15:53:53.220Z,100722.28
2018-04-16T15:56:25.739Z,100728.74
2018-04-16T15:58:58.265Z,100730.28
2018-04-16T16:01:30.883Z,100740.70
2018-04-16T16:04:03.419Z,100742.80
2018-04-16T16:06:36.170Z,100751.02
2018-04-16T16:09:08.794Z,100746.23
2018-04-16T16:11:41.301Z,100750.93
2018-04-16T16:14:13.831Z,100752.09
2018-04-16T16:16:46.355Z,100751.06
2018-04-16T16:19:18.898Z,100754.86
2018-04-16T16:21:51.420Z,100755.58
2018-04-16T16:24:23.918Z,100764.20
2018-04-16T16:26:56.535Z,100758.91
2018-04-16T16:29:29.123Z,100763.93
2018-04-16T16:32:01.652Z,100760.57
2018-04-16T16:34:34.195Z,100763.20
2018-04-16T16:37:06.779Z,100775.52
2018-04-16T16:39:39.288Z,100765.19
2018-04-16T16:42:11.815Z,100774.83
2018-04-16T16:44:44.313Z,100779.06
2018-04-16T16:47:17.091Z,100776.72
2018-04-16T16:49:49.600Z,100776.72
2018-04-16T16:52:22.219Z,100783.64
2018-04-16T16:54:54.723Z,100801.03
2018-04-16T16:57:27.275Z,100801.86
2018-04-16T16:59:59.876Z,100805.14
2018-04-16T17:02:32.461Z,100812.61
2018-04-16T17:05:04.931Z,100810.33
2018-04-16T17:07:37.511Z,100808.05
2018-04-16T17:10:10.015Z,100812.69
2018-04-16T17:12:42.588Z,100814.25
2018-04-16T17:15:15.167Z,100818.44
2018-04-16T17:17:48.027Z,100824.37
2018-04-16T17:20:20.537Z,100830.73
2018-04-16T17:22:53.139Z,100828.44
2018-04-16T17:25:25.651Z,100832.41
2018-04-16T17:27:58.192Z,100833.42
2018-04-16T17:30:30.695Z,100841.13
2018-04-16T17:33:03.563Z,100840.63
2018-04-16T17:35:36.177Z,100843.16
2018-04-16T17:38:08.768Z,100839.92
2018-04-16T17:40:41.320Z,100850.10
2018-04-16T17:43:13.880Z,100843.41
2018-04-16T17:45:46.383Z,100846.92
2018-04-16T17:48:19.041Z,100846.39
2018-04-16T17:50:51.611Z,100847.93
2018-04-16T17:53:24.308Z,100854.79
2018-04-16T17:55:56.806Z,100851.95
2018-04-16T17:58:29.531Z,100861.85
2018-04-16T18:01:02.030Z,100871.80
2018-04-16T18:03:34.691Z,100870.17
2018-04-16T18:06:07.198Z,100876.78
2018-04-16T18:08:40.120Z,100874.31
2018-04-16T18:11:12.625Z,100884.44
2018-04-16T18:13:45.147Z,100894.41
2018-04-16T18:16:17.724Z,100898.81
2018-04-16T18:18:50.259Z,100907.77
2018-04-16T18:21:22.831Z,100911.09
2018-04-16T18:23:55.375Z,100922.11
2018-04-16T18:26:27.902Z,100918.69
2018-04-16T18:29:00.436Z,100927.12
2018-04-16T18:31:32.965Z,100936.63
2018-04-16T18:34:05.488Z,100948.88
2018-04-16T18:36:38.010Z,100945.69
2018-04-16T18:39:12.574Z,100957.79
2018-04-16T18:41:45.100Z,100961.75
2018-04-16T18:44:17.748Z,100975.34
2018-04-16T18:46:50.697Z,100970.85
2018-04-16T18:49:23.224Z,100980.31
2018-04-16T18:51:55.807Z,100980.96
2018-04-16T18:54:28.331Z,100979.67
2018-04-16T18:57:00.832Z,100984.02
2018-04-16T18:59:33.403Z,100992.38
2018-04-16T19:02:05.923Z,100995.43
2018-04-16T19:04:38.536Z,101007.29
2018-04-16T19:07:11.039Z,101007.06
2018-04-16T19:09:46.264Z,101018.36
2018-04-16T19:12:24.444Z,101017.44
2018-04-16T19:14:56.974Z,101015.50
2018-04-16T19:17:29.603Z,101019.17
2018-04-16T19:20:02.267Z,101015.88
2018-04-16T19:22:34.849Z,101017.31
2018-04-16T19:25:07.427Z,101022.42
2018-04-16T19:27:45.560Z,101031.59
2018-04-16T19:30:18.096Z,101028.58
2018-04-16T19:32:56.362Z,101036.87
2018-04-16T19:35:28.867Z,101029.55
2018-04-16T19:38:01.425Z,101033.57
2018-04-16T19:40:34.008Z,101030.33
2018-04-16T19:43:06.573Z,101037.12
2018-04-16T19:45:39.088Z,101041.53
2018-04-16T19:48:11.663Z,101038.29
2018-04-16T19:50:44.168Z,101043.59
2018-04-16T19:53:16.735Z,101050.48
2018-04-16T19:55:54.893Z,101054.50
2018-04-16T19:58:27.417Z,101052.74
2018-04-16T20:00:59.960Z,101054.11
2018-04-16T20:03:38.375Z,101058.42
2018-04-16T20:06:10.956Z,101063.16
2018-04-16T20:08:43.488Z,101069.55
2018-04-16T20:11:16.019Z,101075.13
2018-04-16T20:13:48.549Z,101081.94
2018-04-16T20:16:21.118Z,101082.25
2018-04-16T20:18:53.661Z,101081.47
2018-04-16T20:21:26.369Z,101084.93
2018-04-16T20:23:58.915Z,101083.56
2018-04-16T20:26:31.437Z,101097.14
2018-04-16T20:29:03.962Z,101091.16
2018-04-16T20:31:36.482Z,101094.63
2018-04-16T20:34:09.091Z,101100.08
2018-04-16T20:36:41.608Z,101109.13
2018-04-16T20:39:14.297Z,101104.92
2018-04-16T20:41:48.210Z,101111.69
2018-04-16T20:44:20.761Z,101110.17
2018-04-16T20:46:53.309Z,101116.09
2018-04-16T20:49:25.884Z,101116.05
2018-04-16T20:51:58.391Z,101118.33
2018-04-16T20:54:30.940Z,101118.72
2018-04-16T20:57:03.448Z,101123.73
2018-04-16T20:59:36.031Z,101131.06
2018-04-16T21:02:08.849Z,101140.11
2018-04-16T21:04:41.383Z,101141.73
2018-04-16T21:07:13.886Z,101138.17
2018-04-16T21:09:46.416Z,101138.91
2018-04-16T21:12:19.038Z,101149.37
2018-04-16T21:14:51.568Z,101151.66
2018-04-16T21:17:24.091Z,101154.72
2018-04-16T21:19:56.618Z,101157.97
2018-04-16T21:22:29.140Z,101153.35
2018-04-16T21:25:01.664Z,101160.87
2018-04-16T21:27:34.233Z,101162.89
2018-04-16T21:30:06.765Z,101159.72
2018-04-16T21:32:39.327Z,101167.64
2018-04-16T21:35:11.899Z,101174.33
2018-04-16T21:37:44.408Z,101185.79
2018-04-16T21:40:16.966Z,101186.67
2018-04-16T21:42:49.470Z,101185.00
2018-04-16T21:45:21.997Z,101187.13
2018-04-16T21:47:54.524Z,101192.42
2018-04-16T21:50:27.116Z,101192.09
2018-04-16T21:52:59.621Z,101191.62
2018-04-16T21:55:32.175Z,101196.69
2018-04-16T21:58:04.684Z,101194.64
2018-04-16T22:00:37.256Z,101194.30
2018-04-16T22:03:09.814Z,101200.39
2018-04-16T22:05:42.325Z,101201.85
2018-04-16T22:08:14.823Z,101197.66
2018-04-16T22:10:47.383Z,101190.86
2018-04-16T22:13:19.875Z,101196.36
2018-04-16T22:15:52.441Z,101195.52
2018-04-16T22:18:24.946Z,101203.30
2018-04-16T22:20:57.459Z,101212.43
2018-04-16T22:23:29.967Z,101211.80
2018-04-16T22:26:02.478Z,101218.26
2018-04-16T22:28:34.970Z,101218.83
2018-04-16T22:31:07.504Z,101218.69
2018-04-16T22:33:40.049Z,101220.82
2018-04-16T22:36:12.649Z,101229.05
2018-04-16T22:38:45.145Z,101223.42
2018-04-16T22:41:17.671Z,101224.81
2018-04-16T22:43:50.198Z,101222.78
2018-04-16T22:46:22.767Z,101236.89
2018-04-16T22:48:55.255Z,101242.02
2018-04-16T22:51:27.775Z,101241.59
2018-04-16T22:54:00.430Z,101253.66
2018-04-16T22:56:33.032Z,101250.37
2018-04-16T22:59:05.606Z,101251.80
2018-04-16T23:01:38.122Z,101259.74
2018-04-16T23:04:10.619Z,101258.80
2018-04-16T23:06:43.153Z,101255.41
2018-04-16T23:09:15.654Z,101256.20
2018-04-16T23:11:48.172Z,101260.83
2018-04-16T23:14:20.669Z,101264.64
2018-04-16T23:16:53.193Z,101263.22
2018-04-16T23:19:25.695Z,101260.52
2018-04-16T23:21:58.282Z,101265.03
2018-04-16T23:24:30.858Z,101266.20
2018-04-16T23:27:03.619Z,101263.63
2018-04-16T23:29:36.120Z,101262.49
2018-04-16T23:32:08.690Z,101273.17
2018-04-16T23:34:41.193Z,101277.17
2018-04-16T23:37:13.712Z,101281.11
2018-04-16T23:39:46.216Z,101283.65
2018-04-16T23:42:18.755Z,101282.34
2018-04-16T23:44:51.251Z,101276.77
2018-04-16T23:47:23.763Z,101288.27
2018-04-16T23:49:56.255Z,101289.97
2018-04-16T23:52:28.776Z,101289.59
2018-04-16T23:55:01.396Z,101298.61
2018-04-16T23:57:33.971Z,101296.52
